createdAt,value
2015-09-17T00:02:28.492Z,16.9
2015-09-17T00:07:30.440Z,16.9
2015-09-17T00:12:33.309Z,16.9
2015-09-17T00:17:35.553Z,16.9
2015-09-17T00:22:37.719Z,16.8
2015-09-17T00:27:40.041Z,16.8
2015-09-17T00:32:42.285Z,16.8
2015-09-17T00:37:44.638Z,16.8
2015-09-17T00:42:46.867Z,16.8
2015-09-17T00:47:48.611Z,16.8
2015-09-17T00:52:51.746Z,16.8
2015-09-17T00:57:53.522Z,16.8
2015-09-17T01:02:55.891Z,16.8
2015-09-17T01:07:58.166Z,16.8
2015-09-17T01:13:00.427Z,16.8
2015-09-17T01:18:02.715Z,16.7
2015-09-17T01:21:18.926Z,16.7
2015-09-17T01:22:54.850Z,16.7
2015-09-17T01:27:57.547Z,16.8
2015-09-17T01:32:59.354Z,16.7
2015-09-17T01:38:01.660Z,16.7
2015-09-17T01:43:03.983Z,16.6
2015-09-17T01:48:06.976Z,16.8
2015-09-17T01:53:08.581Z,16.6
2015-09-17T01:58:10.903Z,16.6
2015-09-17T02:03:13.616Z,16.6
2015-09-17T02:08:15.860Z,16.6
2015-09-17T02:13:17.697Z,16.6
2015-09-17T02:18:19.943Z,16.6
2015-09-17T02:23:22.827Z,16.6
2015-09-17T02:28:26.243Z,16.6
2015-09-17T02:33:27.300Z,16.6
2015-09-17T02:38:29.620Z,16.6
2015-09-17T02:43:31.436Z,16.6
2015-09-17T02:48:34.554Z,16.6
2015-09-17T02:53:36.403Z,16.6
2015-09-17T02:58:38.710Z,16.5
2015-09-17T03:03:41.797Z,16.7
2015-09-17T03:08:43.636Z,16.6
2015-09-17T03:13:46.161Z,16.5
2015-09-17T03:18:48.772Z,16.6
2015-09-17T03:23:51.133Z,16.6
2015-09-17T03:28:52.980Z,16.6
2015-09-17T03:33:55.255Z,16.6
2015-09-17T03:38:57.973Z,16.6
2015-09-17T03:44:00.251Z,16.6
2015-09-17T03:49:03.027Z,16.6
2015-09-17T03:54:05.318Z,16.7
2015-09-17T03:59:07.887Z,16.6
2015-09-17T04:04:10.153Z,16.6
2015-09-17T04:09:12.835Z,16.7
2015-09-17T04:14:14.845Z,16.8
2015-09-17T04:19:17.074Z,16.6
2015-09-17T04:24:19.318Z,16.6
2015-09-17T04:29:21.609Z,16.6
2015-09-17T04:34:24.041Z,16.6
2015-09-17T04:39:25.801Z,16.7
2015-09-17T04:44:28.264Z,16.7
2015-09-17T04:49:31.103Z,16.6
2015-09-17T04:54:32.925Z,16.6
2015-09-17T04:59:35.201Z,16.6
2015-09-17T05:04:37.491Z,16.7
2015-09-17T05:09:39.735Z,16.6
2015-09-17T05:14:41.980Z,16.6
2015-09-17T05:19:44.301Z,16.7
2015-09-17T05:24:46.059Z,16.7
2015-09-17T05:29:48.819Z,16.8
2015-09-17T05:34:50.907Z,16.7
2015-09-17T05:39:53.510Z,16.7
2015-09-17T05:44:55.677Z,16.7
2015-09-17T05:49:57.952Z,16.7
2015-09-17T05:55:00.221Z,16.6
2015-09-17T06:00:02.309Z,16.6
2015-09-17T06:05:06.303Z,16.7
2015-09-17T06:10:08.423Z,16.6
2015-09-17T06:15:10.822Z,16.7
2015-09-17T06:20:13.410Z,16.8
2015-09-17T06:25:16.686Z,16.8
2015-09-17T06:30:19.071Z,16.9
2015-09-17T06:35:21.298Z,16.9
2015-09-17T06:40:23.619Z,16.9
2015-09-17T06:45:25.910Z,17.1
2015-09-17T06:50:28.124Z,17.2
2015-09-17T06:55:29.884Z,17.4
2015-09-17T07:00:33.034Z,17.4
2015-09-17T07:05:34.918Z,17.4
2015-09-17T07:10:37.163Z,17.4
2015-09-17T07:15:39.469Z,17.4
2015-09-17T07:20:41.729Z,17.4
2015-09-17T07:25:44.145Z,17.3
2015-09-17T07:30:46.420Z,17.2
2015-09-17T07:35:48.946Z,17.2
2015-09-17T07:40:50.503Z,17.2
2015-09-17T07:45:53.106Z,17.1
2015-09-17T07:50:55.601Z,17.1
2015-09-17T07:55:57.735Z,17.2
2015-09-17T08:01:00.024Z,17.1
2015-09-17T08:06:02.283Z,17.1
2015-09-17T08:11:04.559Z,17.1
2015-09-17T08:16:06.834Z,17.1
2015-09-17T08:21:09.110Z,17.1
2015-09-17T08:26:11.183Z,17.2
2015-09-17T08:31:13.864Z,17.2
2015-09-17T08:36:17.078Z,17.2
2015-09-17T08:41:19.009Z,17.2
2015-09-17T08:46:22.331Z,17.2
2015-09-17T08:51:24.497Z,17.2
2015-09-17T08:56:26.770Z,17.3
2015-09-17T09:01:29.889Z,17.4
2015-09-17T09:06:31.837Z,17.2
2015-09-17T09:11:34.878Z,17.2
2015-09-17T09:16:37.573Z,17.2
2015-09-17T09:21:39.379Z,17.2
2015-09-17T09:26:41.983Z,17.1
2015-09-17T09:31:44.259Z,17.1
2015-09-17T09:36:46.502Z,17.2
2015-09-17T09:41:48.888Z,17.2
2015-09-17T09:46:51.022Z,17.2
2015-09-17T09:51:52.923Z,17.2
2015-09-17T09:56:55.542Z,17.3
2015-09-17T10:01:59.082Z,17.3
2015-09-17T10:07:01.108Z,17.3
2015-09-17T10:12:03.227Z,17.3
2015-09-17T10:17:05.519Z,17.3
2015-09-17T10:22:07.825Z,17.2
2015-09-17T10:27:10.164Z,17.2
2015-09-17T10:32:13.080Z,17.3
2015-09-17T10:37:15.649Z,17.2
2015-09-17T10:42:19.191Z,17.2
2015-09-17T10:47:19.966Z,17.3
2015-09-17T10:52:22.617Z,17.3
2015-09-17T10:57:24.438Z,17.4
2015-09-17T11:02:26.698Z,17.2
2015-09-17T11:07:29.615Z,17.2
2015-09-17T11:12:31.202Z,17.2
2015-09-17T11:17:33.555Z,17.1
2015-09-17T11:22:35.473Z,17.2
2015-09-17T11:27:38.200Z,17.1
2015-09-17T11:32:40.959Z,17.1
2015-09-17T11:37:43.329Z,17.1
2015-09-17T11:42:45.589Z,17.1
2015-09-17T11:47:47.880Z,17.1
2015-09-17T11:52:50.091Z,17.1
2015-09-17T11:57:52.367Z,17
2015-09-17T12:02:54.110Z,17
2015-09-17T12:07:57.324Z,17
2015-09-17T12:12:58.787Z,16.9
2015-09-17T12:18:01.343Z,16.9
2015-09-17T12:23:03.522Z,16.9
2015-09-17T12:28:06.109Z,16.9
2015-09-17T12:33:08.491Z,16.7
2015-09-17T12:38:10.820Z,16.8
2015-09-17T12:43:13.822Z,16.7
2015-09-17T12:48:15.678Z,16.8
2015-09-17T12:53:18.221Z,16.9
2015-09-17T12:58:20.653Z,16.8
2015-09-17T13:03:22.913Z,16.8
2015-09-17T13:08:25.311Z,16.8
2015-09-17T13:13:27.524Z,16.9
2015-09-17T13:18:29.862Z,16.9
2015-09-17T13:23:32.059Z,17
2015-09-17T13:28:34.272Z,17
2015-09-17T13:33:36.704Z,16.9
2015-09-17T13:38:38.386Z,16.8
2015-09-17T13:43:41.177Z,16.8
2015-09-17T13:48:43.812Z,16.8
2015-09-17T13:53:45.774Z,16.7
2015-09-17T13:58:47.987Z,16.7
2015-09-17T14:03:50.341Z,16.7
2015-09-17T14:08:52.539Z,16.7
2015-09-17T14:13:54.766Z,16.6
2015-09-17T14:18:57.386Z,16.7
2015-09-17T14:23:59.691Z,16.6
2015-09-17T14:29:02.404Z,16.6
2015-09-17T14:34:05.554Z,16.6
2015-09-17T14:39:07.735Z,16.6
2015-09-17T14:44:10.042Z,16.6
2015-09-17T14:49:12.380Z,16.5
2015-09-17T14:54:14.624Z,16.4
2015-09-17T14:59:16.916Z,16.4
2015-09-17T15:04:19.050Z,16.4
2015-09-17T15:09:21.294Z,16.5
2015-09-17T15:14:25.835Z,16.5
2015-09-17T15:19:26.032Z,16.4
2015-09-17T15:24:28.229Z,16.4
2015-09-17T15:29:30.489Z,16.3
2015-09-17T15:34:32.921Z,16.3
2015-09-17T15:39:35.041Z,16.2
2015-09-17T15:44:37.361Z,16.4
2015-09-17T15:49:39.434Z,16.4
2015-09-17T15:54:42.193Z,16.5
2015-09-17T15:59:44.140Z,16.5
2015-09-17T16:04:47.588Z,16.5
2015-09-17T16:09:49.941Z,16.4
2015-09-17T16:14:52.091Z,16.4
2015-09-17T16:19:54.446Z,16.4
2015-09-17T16:24:56.658Z,16.4
2015-09-17T16:29:58.496Z,16.4
2015-09-17T16:35:03.302Z,16.4
2015-09-17T16:40:03.687Z,16.2
2015-09-17T16:45:05.869Z,16.2
2015-09-17T16:50:08.176Z,16.1
2015-09-17T16:55:10.514Z,16.2
2015-09-17T17:00:13.071Z,16
2015-09-17T17:05:15.909Z,16
2015-09-17T17:10:18.603Z,16.1
2015-09-17T17:15:22.473Z,16
2015-09-17T17:20:22.795Z,16
2015-09-17T17:25:25.664Z,15.9
2015-09-17T17:30:27.549Z,16
2015-09-17T17:35:29.793Z,15.9
2015-09-17T17:40:32.053Z,15.9
2015-09-17T17:45:34.313Z,15.9
2015-09-17T17:50:36.197Z,15.8
2015-09-17T17:55:38.613Z,15.8
2015-09-17T18:00:42.014Z,15.8
2015-09-17T18:05:43.524Z,15.7
2015-09-17T18:10:45.784Z,15.6
2015-09-17T18:15:47.965Z,15.5
2015-09-17T18:20:50.272Z,15.6
2015-09-17T18:25:54.422Z,15.6
2015-09-17T18:30:56.807Z,15.6
2015-09-17T18:35:59.502Z,15.6
2015-09-17T18:41:01.560Z,15.6
2015-09-17T18:46:04.257Z,15.6
2015-09-17T18:51:06.610Z,15.6
2015-09-17T18:56:08.792Z,15.5
2015-09-17T19:01:11.020Z,15.5
2015-09-17T19:06:13.373Z,15.5
2015-09-17T19:11:15.134Z,15.5
2015-09-17T19:16:17.940Z,15.5
2015-09-17T19:21:19.700Z,15.6
2015-09-17T19:26:23.507Z,15.6
2015-09-17T19:31:24.453Z,15.6
2015-09-17T19:36:26.996Z,15.5
2015-09-17T19:41:29.380Z,15.2
2015-09-17T19:46:31.687Z,15.3
2015-09-17T19:51:33.851Z,15.5
2015-09-17T19:56:36.125Z,15.5
2015-09-17T20:01:38.370Z,15.5
2015-09-17T20:06:40.178Z,14.4
2015-09-17T20:11:43.421Z,14.2
2015-09-17T20:16:45.181Z,15.1
2015-09-17T20:21:48.300Z,15.2
2015-09-17T20:26:50.607Z,15.3
2015-09-17T20:31:52.913Z,15.3
2015-09-17T20:36:54.923Z,15.3
2015-09-17T20:41:56.933Z,15.3
2015-09-17T20:46:59.928Z,15.3
2015-09-17T20:52:01.469Z,15.3
2015-09-17T20:57:03.993Z,15.3
2015-09-17T21:02:06.425Z,15.3
2015-09-17T21:07:08.730Z,15.3
2015-09-17T21:12:11.834Z,15.3
2015-09-17T21:17:14.110Z,15.2
2015-09-17T21:22:16.323Z,15.2
2015-09-17T21:27:18.645Z,15.2
2015-09-17T21:32:20.654Z,15.1
2015-09-17T21:37:23.544Z,15.1
2015-09-17T21:42:25.598Z,15.1
2015-09-17T21:47:28.164Z,14.9
2015-09-17T21:52:30.435Z,14.9
2015-09-17T21:57:32.696Z,14.9
2015-09-17T22:02:35.034Z,14.8
2015-09-17T22:07:37.277Z,14.8
2015-09-17T22:12:39.570Z,14.7
2015-09-17T22:17:41.436Z,14.6
2015-09-17T22:22:44.618Z,14.6
2015-09-17T22:27:47.175Z,14.6
2015-09-17T22:32:49.418Z,14.6
2015-09-17T22:37:52.522Z,14.6
2015-09-17T22:42:55.407Z,14.6
2015-09-17T22:47:58.338Z,14.5
2015-09-17T22:52:59.271Z,14.4
2015-09-17T22:58:01.155Z,14.3
2015-09-17T23:03:05.649Z,14.4
2015-09-17T23:08:06.800Z,14.3
2015-09-17T23:13:08.715Z,14.4
2015-09-17T23:18:11.069Z,14.2
2015-09-17T23:23:13.814Z,14.2
2015-09-17T23:28:16.979Z,14.2
2015-09-17T23:33:19.286Z,14.2
2015-09-17T23:38:21.546Z,14.2
2015-09-17T23:43:24.335Z,14.1
2015-09-17T23:48:27.079Z,14.1
2015-09-17T23:53:29.276Z,14.1
2015-09-17T23:58:31.599Z,14.1
